sensor_id;sensor_type;location;lat;lon;timestamp;temperature;humidity
24420;DHT22;12599;52.426;13.330;2022-08-01T00:01:15;22.20;99.90
24420;DHT22;12599;52.426;13.330;2022-08-01T00:03:40;22.20;99.90
24420;DHT22;12599;52.426;13.330;2022-08-01T00:06:06;21.90;99.90
24420;DHT22;12599;52.426;13.330;2022-08-01T00:08:32;21.80;99.90
24420;DHT22;12599;52.426;13.330;2022-08-01T00:10:57;21.80;99.90
24420;DHT22;12599;52.426;13.330;2022-08-01T00:13:23;21.60;99.90
24420;DHT22;12599;52.426;13.330;2022-08-01T00:15:48;21.60;99.90
24420;DHT22;12599;52.426;13.330;2022-08-01T00:18:14;21.50;99.90
24420;DHT22;12599;52.426;13.330;2022-08-01T00:20:39;21.40;99.90
24420;DHT22;12599;52.426;13.330;2022-08-01T00:23:05;21.40;99.90
24420;DHT22;12599;52.426;13.330;2022-08-01T00:25:31;21.40;99.90
24420;DHT22;12599;52.426;13.330;2022-08-01T00:27:56;21.40;99.90
24420;DHT22;12599;52.426;13.330;2022-08-01T00:30:22;21.40;99.90
24420;DHT22;12599;52.426;13.330;2022-08-01T00:32:47;21.40;99.90
24420;DHT22;12599;52.426;13.330;2022-08-01T00:35:13;21.50;99.90
24420;DHT22;12599;52.426;13.330;2022-08-01T00:37:38;21.50;99.90
24420;DHT22;12599;52.426;13.330;2022-08-01T00:40:05;21.60;99.90
24420;DHT22;12599;52.426;13.330;2022-08-01T00:42:31;21.60;99.90
24420;DHT22;12599;52.426;13.330;2022-08-01T00:44:56;21.60;99.90
24420;DHT22;12599;52.426;13.330;2022-08-01T00:47:22;21.50;99.90
24420;DHT22;12599;52.426;13.330;2022-08-01T00:49:48;21.50;99.90
24420;DHT22;12599;52.426;13.330;2022-08-01T00:52:13;21.60;99.90
24420;DHT22;12599;52.426;13.330;2022-08-01T00:54:39;21.30;99.90
24420;DHT22;12599;52.426;13.330;2022-08-01T00:57:05;21.30;99.90
24420;DHT22;12599;52.426;13.330;2022-08-01T00:59:31;21.40;99.90
24420;DHT22;12599;52.426;13.330;2022-08-01T01:01:57;21.50;99.90
24420;DHT22;12599;52.426;13.330;2022-08-01T01:04:23;21.40;99.90
24420;DHT22;12599;52.426;13.330;2022-08-01T01:09:42;21.40;99.90
24420;DHT22;12599;52.426;13.330;2022-08-01T01:17:31;21.30;99.90
24420;DHT22;12599;52.426;13.330;2022-08-01T01:19:59;21.20;99.90
24420;DHT22;12599;52.426;13.330;2022-08-01T01:28:15;21.10;99.90
24420;DHT22;12599;52.426;13.330;2022-08-01T01:30:44;21.10;99.90
24420;DHT22;12599;52.426;13.330;2022-08-01T01:33:12;21.30;99.90
24420;DHT22;12599;52.426;13.330;2022-08-01T01:35:45;21.30;99.90
24420;DHT22;12599;52.426;13.330;2022-08-01T01:40:42;21.30;99.90
24420;DHT22;12599;52.426;13.330;2022-08-01T01:43:11;21.20;99.90
24420;DHT22;12599;52.426;13.330;2022-08-01T01:45:37;21.20;99.90
24420;DHT22;12599;52.426;13.330;2022-08-01T01:48:06;21.20;99.90
24420;DHT22;12599;52.426;13.330;2022-08-01T01:50:34;21.20;99.90
24420;DHT22;12599;52.426;13.330;2022-08-01T01:53:02;21.20;99.90
24420;DHT22;12599;52.426;13.330;2022-08-01T01:55:30;21.10;99.90
24420;DHT22;12599;52.426;13.330;2022-08-01T01:57:56;21.10;99.90
24420;DHT22;12599;52.426;13.330;2022-08-01T02:00:23;21.10;99.90
24420;DHT22;12599;52.426;13.330;2022-08-01T02:02:51;21.10;99.90
24420;DHT22;12599;52.426;13.330;2022-08-01T02:05:18;21.10;99.90
24420;DHT22;12599;52.426;13.330;2022-08-01T02:07:46;21.10;99.90
24420;DHT22;12599;52.426;13.330;2022-08-01T02:10:13;21.10;99.90
24420;DHT22;12599;52.426;13.330;2022-08-01T02:12:43;21.00;99.90
24420;DHT22;12599;52.426;13.330;2022-08-01T02:15:11;20.90;99.90
24420;DHT22;12599;52.426;13.330;2022-08-01T02:17:42;20.90;99.90
24420;DHT22;12599;52.426;13.330;2022-08-01T02:20:09;20.80;99.90
24420;DHT22;12599;52.426;13.330;2022-08-01T02:22:41;20.70;99.90
24420;DHT22;12599;52.426;13.330;2022-08-01T02:25:15;20.80;99.90
24420;DHT22;12599;52.426;13.330;2022-08-01T02:28:01;20.70;99.90
24420;DHT22;12599;52.426;13.330;2022-08-01T02:30:33;20.60;99.90
24420;DHT22;12599;52.426;13.330;2022-08-01T02:33:05;20.70;99.90
24420;DHT22;12599;52.426;13.330;2022-08-01T02:35:34;20.70;99.90
24420;DHT22;12599;52.426;13.330;2022-08-01T02:38:01;20.60;99.90
24420;DHT22;12599;52.426;13.330;2022-08-01T02:40:32;20.60;99.90
24420;DHT22;12599;52.426;13.330;2022-08-01T02:43:01;20.60;99.90
24420;DHT22;12599;52.426;13.330;2022-08-01T02:45:28;20.60;99.90
24420;DHT22;12599;52.426;13.330;2022-08-01T02:47:59;20.60;99.90
24420;DHT22;12599;52.426;13.330;2022-08-01T02:50:28;20.60;99.90
24420;DHT22;12599;52.426;13.330;2022-08-01T02:52:55;20.60;99.90
24420;DHT22;12599;52.426;13.330;2022-08-01T02:55:22;20.60;99.90
24420;DHT22;12599;52.426;13.330;2022-08-01T02:57:50;20.70;99.90
24420;DHT22;12599;52.426;13.330;2022-08-01T03:00:17;20.70;99.90
24420;DHT22;12599;52.426;13.330;2022-08-01T03:02:44;20.70;99.90
24420;DHT22;12599;52.426;13.330;2022-08-01T03:05:12;20.60;99.90
24420;DHT22;12599;52.426;13.330;2022-08-01T03:07:39;20.60;99.90
24420;DHT22;12599;52.426;13.330;2022-08-01T03:10:05;20.50;99.90
24420;DHT22;12599;52.426;13.330;2022-08-01T03:12:33;20.40;99.90
24420;DHT22;12599;52.426;13.330;2022-08-01T03:15:00;20.40;99.90
24420;DHT22;12599;52.426;13.330;2022-08-01T03:17:28;20.30;99.90
24420;DHT22;12599;52.426;13.330;2022-08-01T03:19:56;20.30;99.90
24420;DHT22;12599;52.426;13.330;2022-08-01T03:22:24;20.30;99.90
24420;DHT22;12599;52.426;13.330;2022-08-01T03:24:52;21.20;99.90
24420;DHT22;12599;52.426;13.330;2022-08-01T03:27:20;20.20;99.90
24420;DHT22;12599;52.426;13.330;2022-08-01T03:29:47;20.20;99.90
24420;DHT22;12599;52.426;13.330;2022-08-01T03:32:15;20.20;99.90
24420;DHT22;12599;52.426;13.330;2022-08-01T03:34:41;20.20;99.90
24420;DHT22;12599;52.426;13.330;2022-08-01T03:37:24;20.30;99.90
24420;DHT22;12599;52.426;13.330;2022-08-01T03:39:58;20.20;99.90
24420;DHT22;12599;52.426;13.330;2022-08-01T03:42:31;20.30;99.90
24420;DHT22;12599;52.426;13.330;2022-08-01T03:45:01;20.30;99.90
24420;DHT22;12599;52.426;13.330;2022-08-01T03:47:32;20.30;99.90
24420;DHT22;12599;52.426;13.330;2022-08-01T03:50:01;20.30;99.90
24420;DHT22;12599;52.426;13.330;2022-08-01T03:52:28;20.20;99.90
24420;DHT22;12599;52.426;13.330;2022-08-01T03:54:56;20.30;99.90
24420;DHT22;12599;52.426;13.330;2022-08-01T03:57:23;20.30;99.90
24420;DHT22;12599;52.426;13.330;2022-08-01T03:59:51;20.40;99.90
24420;DHT22;12599;52.426;13.330;2022-08-01T04:02:17;20.30;99.90
24420;DHT22;12599;52.426;13.330;2022-08-01T04:04:44;20.40;99.90
24420;DHT22;12599;52.426;13.330;2022-08-01T04:07:24;20.50;99.90
24420;DHT22;12599;52.426;13.330;2022-08-01T04:09:50;20.50;99.90
24420;DHT22;12599;52.426;13.330;2022-08-01T04:12:16;20.50;99.90
24420;DHT22;12599;52.426;13.330;2022-08-01T04:14:41;20.50;99.90
24420;DHT22;12599;52.426;13.330;2022-08-01T04:17:07;20.60;99.90
24420;DHT22;12599;52.426;13.330;2022-08-01T04:19:32;20.60;99.90
24420;DHT22;12599;52.426;13.330;2022-08-01T04:21:58;20.60;99.90
24420;DHT22;12599;52.426;13.330;2022-08-01T04:24:25;20.60;99.90
24420;DHT22;12599;52.426;13.330;2022-08-01T04:26:53;20.70;99.90
24420;DHT22;12599;52.426;13.330;2022-08-01T04:29:20;20.50;99.90
24420;DHT22;12599;52.426;13.330;2022-08-01T04:31:48;20.60;99.90
24420;DHT22;12599;52.426;13.330;2022-08-01T04:34:16;20.50;99.90
24420;DHT22;12599;52.426;13.330;2022-08-01T04:36:42;20.50;99.90
24420;DHT22;12599;52.426;13.330;2022-08-01T04:39:10;20.50;99.90
24420;DHT22;12599;52.426;13.330;2022-08-01T04:41:36;20.60;99.90
24420;DHT22;12599;52.426;13.330;2022-08-01T04:44:03;20.60;99.90
24420;DHT22;12599;52.426;13.330;2022-08-01T04:46:29;20.60;99.90
24420;DHT22;12599;52.426;13.330;2022-08-01T04:48:56;20.60;99.90
24420;DHT22;12599;52.426;13.330;2022-08-01T04:51:22;20.50;99.90
24420;DHT22;12599;52.426;13.330;2022-08-01T04:53:48;20.40;99.90
24420;DHT22;12599;52.426;13.330;2022-08-01T04:56:16;20.30;99.90
24420;DHT22;12599;52.426;13.330;2022-08-01T04:58:42;20.30;99.90
24420;DHT22;12599;52.426;13.330;2022-08-01T05:01:08;20.30;99.90
24420;DHT22;12599;52.426;13.330;2022-08-01T05:03:34;20.20;99.90
24420;DHT22;12599;52.426;13.330;2022-08-01T05:06:00;20.20;99.90
24420;DHT22;12599;52.426;13.330;2022-08-01T05:08:26;20.30;99.90
24420;DHT22;12599;52.426;13.330;2022-08-01T05:10:51;20.20;99.90
24420;DHT22;12599;52.426;13.330;2022-08-01T05:13:18;20.30;99.90
24420;DHT22;12599;52.426;13.330;2022-08-01T05:15:44;20.20;99.90
24420;DHT22;12599;52.426;13.330;2022-08-01T05:18:09;20.20;99.90
24420;DHT22;12599;52.426;13.330;2022-08-01T05:20:35;20.20;99.90
24420;DHT22;12599;52.426;13.330;2022-08-01T05:23:02;20.20;99.90
24420;DHT22;12599;52.426;13.330;2022-08-01T05:25:28;20.30;99.90
24420;DHT22;12599;52.426;13.330;2022-08-01T05:27:53;20.30;99.90
24420;DHT22;12599;52.426;13.330;2022-08-01T05:30:19;20.40;99.90
24420;DHT22;12599;52.426;13.330;2022-08-01T05:32:44;20.50;99.90
24420;DHT22;12599;52.426;13.330;2022-08-01T05:35:10;20.60;99.90
24420;DHT22;12599;52.426;13.330;2022-08-01T05:37:36;20.60;99.90
24420;DHT22;12599;52.426;13.330;2022-08-01T05:40:02;20.70;99.90
24420;DHT22;12599;52.426;13.330;2022-08-01T05:42:27;20.80;99.90
24420;DHT22;12599;52.426;13.330;2022-08-01T05:44:53;20.90;99.90
24420;DHT22;12599;52.426;13.330;2022-08-01T05:47:18;21.10;99.90
24420;DHT22;12599;52.426;13.330;2022-08-01T05:49:45;21.10;99.90
24420;DHT22;12599;52.426;13.330;2022-08-01T05:52:11;21.10;99.90
24420;DHT22;12599;52.426;13.330;2022-08-01T05:54:36;21.30;99.90
24420;DHT22;12599;52.426;13.330;2022-08-01T05:57:02;21.30;99.90
24420;DHT22;12599;52.426;13.330;2022-08-01T05:59:28;21.10;99.90
24420;DHT22;12599;52.426;13.330;2022-08-01T06:01:54;21.00;99.90
24420;DHT22;12599;52.426;13.330;2022-08-01T06:04:20;20.90;99.90
24420;DHT22;12599;52.426;13.330;2022-08-01T06:06:45;20.90;99.90
24420;DHT22;12599;52.426;13.330;2022-08-01T06:09:11;20.90;99.90
24420;DHT22;12599;52.426;13.330;2022-08-01T06:11:37;20.80;99.90
24420;DHT22;12599;52.426;13.330;2022-08-01T06:14:02;21.00;99.90
24420;DHT22;12599;52.426;13.330;2022-08-01T06:16:28;21.00;99.90
24420;DHT22;12599;52.426;13.330;2022-08-01T06:18:54;21.20;99.90
24420;DHT22;12599;52.426;13.330;2022-08-01T06:21:19;21.10;99.90
24420;DHT22;12599;52.426;13.330;2022-08-01T06:23:45;21.20;99.90
24420;DHT22;12599;52.426;13.330;2022-08-01T06:26:10;21.00;99.90
24420;DHT22;12599;52.426;13.330;2022-08-01T06:28:37;20.90;99.90
24420;DHT22;12599;52.426;13.330;2022-08-01T06:31:03;20.90;99.90
24420;DHT22;12599;52.426;13.330;2022-08-01T06:33:29;21.00;99.90
24420;DHT22;12599;52.426;13.330;2022-08-01T06:35:54;21.00;99.90
24420;DHT22;12599;52.426;13.330;2022-08-01T06:38:20;20.90;99.90
24420;DHT22;12599;52.426;13.330;2022-08-01T06:40:46;20.80;99.90
24420;DHT22;12599;52.426;13.330;2022-08-01T06:43:11;20.70;99.90
24420;DHT22;12599;52.426;13.330;2022-08-01T06:45:38;20.40;99.90
24420;DHT22;12599;52.426;13.330;2022-08-01T06:48:04;20.40;99.90
24420;DHT22;12599;52.426;13.330;2022-08-01T06:50:30;20.40;99.90
24420;DHT22;12599;52.426;13.330;2022-08-01T06:52:57;20.40;99.90
24420;DHT22;12599;52.426;13.330;2022-08-01T06:55:22;20.50;99.90
24420;DHT22;12599;52.426;13.330;2022-08-01T06:57:52;20.50;99.90
24420;DHT22;12599;52.426;13.330;2022-08-01T07:00:20;20.50;99.90
24420;DHT22;12599;52.426;13.330;2022-08-01T07:02:50;20.60;99.90
24420;DHT22;12599;52.426;13.330;2022-08-01T07:05:15;20.70;99.90
24420;DHT22;12599;52.426;13.330;2022-08-01T07:07:41;20.80;99.90
24420;DHT22;12599;52.426;13.330;2022-08-01T07:10:07;21.00;99.90
24420;DHT22;12599;52.426;13.330;2022-08-01T07:12:34;21.10;99.90
24420;DHT22;12599;52.426;13.330;2022-08-01T07:15:02;21.10;99.90
24420;DHT22;12599;52.426;13.330;2022-08-01T07:17:28;21.00;99.90
24420;DHT22;12599;52.426;13.330;2022-08-01T07:19:54;21.10;99.90
24420;DHT22;12599;52.426;13.330;2022-08-01T07:22:19;21.30;99.90
24420;DHT22;12599;52.426;13.330;2022-08-01T07:24:46;21.40;99.90
24420;DHT22;12599;52.426;13.330;2022-08-01T07:27:11;21.50;99.90
24420;DHT22;12599;52.426;13.330;2022-08-01T07:29:37;21.60;99.90
24420;DHT22;12599;52.426;13.330;2022-08-01T07:32:03;21.50;99.90
24420;DHT22;12599;52.426;13.330;2022-08-01T07:34:28;21.30;99.90
24420;DHT22;12599;52.426;13.330;2022-08-01T07:36:54;21.40;99.90
24420;DHT22;12599;52.426;13.330;2022-08-01T07:39:20;21.50;99.90
24420;DHT22;12599;52.426;13.330;2022-08-01T07:41:46;21.70;99.90
24420;DHT22;12599;52.426;13.330;2022-08-01T07:44:11;21.20;99.90
24420;DHT22;12599;52.426;13.330;2022-08-01T07:46:37;21.80;99.90
24420;DHT22;12599;52.426;13.330;2022-08-01T07:49:02;21.90;99.90
24420;DHT22;12599;52.426;13.330;2022-08-01T07:51:28;21.60;99.90
24420;DHT22;12599;52.426;13.330;2022-08-01T07:53:54;21.50;99.90
24420;DHT22;12599;52.426;13.330;2022-08-01T07:56:19;21.40;99.90
24420;DHT22;12599;52.426;13.330;2022-08-01T07:58:45;21.40;99.90
24420;DHT22;12599;52.426;13.330;2022-08-01T08:01:11;21.30;99.90
24420;DHT22;12599;52.426;13.330;2022-08-01T08:03:37;21.20;99.90
24420;DHT22;12599;52.426;13.330;2022-08-01T08:06:03;21.30;99.90
24420;DHT22;12599;52.426;13.330;2022-08-01T08:08:29;21.30;99.90
24420;DHT22;12599;52.426;13.330;2022-08-01T08:10:54;21.30;99.90
24420;DHT22;12599;52.426;13.330;2022-08-01T08:13:20;21.30;99.90
24420;DHT22;12599;52.426;13.330;2022-08-01T08:15:46;21.20;99.90
24420;DHT22;12599;52.426;13.330;2022-08-01T08:18:11;21.10;99.90
24420;DHT22;12599;52.426;13.330;2022-08-01T08:20:37;20.90;99.90
24420;DHT22;12599;52.426;13.330;2022-08-01T08:23:03;20.80;99.90
24420;DHT22;12599;52.426;13.330;2022-08-01T08:25:48;20.90;99.90
24420;DHT22;12599;52.426;13.330;2022-08-01T08:28:14;21.00;99.90
24420;DHT22;12599;52.426;13.330;2022-08-01T08:30:40;21.20;99.90
24420;DHT22;12599;52.426;13.330;2022-08-01T08:33:05;21.50;99.90
24420;DHT22;12599;52.426;13.330;2022-08-01T08:35:31;21.60;99.90
24420;DHT22;12599;52.426;13.330;2022-08-01T08:37:57;21.80;99.90
24420;DHT22;12599;52.426;13.330;2022-08-01T08:40:29;22.20;99.90
24420;DHT22;12599;52.426;13.330;2022-08-01T08:42:55;22.40;99.90
24420;DHT22;12599;52.426;13.330;2022-08-01T08:45:22;22.60;99.90
24420;DHT22;12599;52.426;13.330;2022-08-01T08:47:48;22.70;99.90
24420;DHT22;12599;52.426;13.330;2022-08-01T08:50:15;22.70;99.90
24420;DHT22;12599;52.426;13.330;2022-08-01T08:52:42;22.50;99.90
24420;DHT22;12599;52.426;13.330;2022-08-01T08:55:09;22.30;99.90
24420;DHT22;12599;52.426;13.330;2022-08-01T08:57:39;22.30;99.90
24420;DHT22;12599;52.426;13.330;2022-08-01T09:00:06;22.30;99.90
24420;DHT22;12599;52.426;13.330;2022-08-01T09:02:32;22.50;99.90
24420;DHT22;12599;52.426;13.330;2022-08-01T09:04:57;22.50;99.90
24420;DHT22;12599;52.426;13.330;2022-08-01T09:07:23;22.40;99.90
24420;DHT22;12599;52.426;13.330;2022-08-01T09:09:51;22.30;99.90
24420;DHT22;12599;52.426;13.330;2022-08-01T09:12:18;22.10;99.90
24420;DHT22;12599;52.426;13.330;2022-08-01T09:14:45;22.00;99.90
24420;DHT22;12599;52.426;13.330;2022-08-01T09:17:11;22.10;99.90
24420;DHT22;12599;52.426;13.330;2022-08-01T09:19:43;22.00;99.90
24420;DHT22;12599;52.426;13.330;2022-08-01T09:22:15;21.90;99.90
24420;DHT22;12599;52.426;13.330;2022-08-01T09:25:09;22.00;99.90
24420;DHT22;12599;52.426;13.330;2022-08-01T09:27:37;22.10;99.90
24420;DHT22;12599;52.426;13.330;2022-08-01T09:30:16;22.00;99.90
24420;DHT22;12599;52.426;13.330;2022-08-01T09:33:00;22.10;99.90
24420;DHT22;12599;52.426;13.330;2022-08-01T09:35:33;22.10;99.90
24420;DHT22;12599;52.426;13.330;2022-08-01T09:40:48;22.20;99.90
24420;DHT22;12599;52.426;13.330;2022-08-01T09:43:15;22.40;99.90
24420;DHT22;12599;52.426;13.330;2022-08-01T09:45:40;22.40;99.90
24420;DHT22;12599;52.426;13.330;2022-08-01T09:48:08;22.50;99.90
24420;DHT22;12599;52.426;13.330;2022-08-01T09:50:44;22.50;99.90
24420;DHT22;12599;52.426;13.330;2022-08-01T09:53:10;22.60;99.90
24420;DHT22;12599;52.426;13.330;2022-08-01T09:55:37;22.70;99.90
24420;DHT22;12599;52.426;13.330;2022-08-01T09:58:04;22.50;99.90
24420;DHT22;12599;52.426;13.330;2022-08-01T10:00:31;22.60;99.90
24420;DHT22;12599;52.426;13.330;2022-08-01T10:02:57;22.40;99.90
24420;DHT22;12599;52.426;13.330;2022-08-01T10:05:34;22.20;99.90
24420;DHT22;12599;52.426;13.330;2022-08-01T10:08:02;22.10;99.90
24420;DHT22;12599;52.426;13.330;2022-08-01T10:10:29;21.90;99.90
24420;DHT22;12599;52.426;13.330;2022-08-01T10:12:57;21.80;99.90
24420;DHT22;12599;52.426;13.330;2022-08-01T10:15:24;21.80;99.90
24420;DHT22;12599;52.426;13.330;2022-08-01T10:17:58;21.70;99.90
24420;DHT22;12599;52.426;13.330;2022-08-01T10:20:33;21.60;99.90
24420;DHT22;12599;52.426;13.330;2022-08-01T10:23:03;21.60;99.90
24420;DHT22;12599;52.426;13.330;2022-08-01T10:25:34;21.80;99.90
24420;DHT22;12599;52.426;13.330;2022-08-01T10:28:02;22.00;99.90
24420;DHT22;12599;52.426;13.330;2022-08-01T10:30:32;22.00;99.90
24420;DHT22;12599;52.426;13.330;2022-08-01T10:32:58;22.00;99.90
24420;DHT22;12599;52.426;13.330;2022-08-01T10:35:24;22.20;99.90
24420;DHT22;12599;52.426;13.330;2022-08-01T10:37:49;22.20;99.90
24420;DHT22;12599;52.426;13.330;2022-08-01T10:40:23;22.30;99.90
24420;DHT22;12599;52.426;13.330;2022-08-01T10:42:50;22.40;99.90
24420;DHT22;12599;52.426;13.330;2022-08-01T10:45:17;22.70;99.90
24420;DHT22;12599;52.426;13.330;2022-08-01T10:47:52;22.90;99.90
24420;DHT22;12599;52.426;13.330;2022-08-01T10:50:29;23.00;99.90
24420;DHT22;12599;52.426;13.330;2022-08-01T10:53:17;22.90;99.90
24420;DHT22;12599;52.426;13.330;2022-08-01T10:58:12;22.60;99.90
24420;DHT22;12599;52.426;13.330;2022-08-01T11:00:38;22.60;99.90
24420;DHT22;12599;52.426;13.330;2022-08-01T11:03:03;22.70;99.90
24420;DHT22;12599;52.426;13.330;2022-08-01T11:05:34;22.80;99.90
24420;DHT22;12599;52.426;13.330;2022-08-01T11:08:10;22.70;99.90
24420;DHT22;12599;52.426;13.330;2022-08-01T11:10:40;22.70;99.90
24420;DHT22;12599;52.426;13.330;2022-08-01T11:13:08;21.10;99.90
24420;DHT22;12599;52.426;13.330;2022-08-01T11:15:35;23.00;99.90
24420;DHT22;12599;52.426;13.330;2022-08-01T11:18:03;23.00;99.90
24420;DHT22;12599;52.426;13.330;2022-08-01T11:20:34;23.00;99.90
24420;DHT22;12599;52.426;13.330;2022-08-01T11:25:27;22.90;99.90
24420;DHT22;12599;52.426;13.330;2022-08-01T11:30:48;22.50;99.90
24420;DHT22;12599;52.426;13.330;2022-08-01T11:33:15;22.10;99.90
24420;DHT22;12599;52.426;13.330;2022-08-01T11:38:42;21.90;99.90
24420;DHT22;12599;52.426;13.330;2022-08-01T11:44:03;22.00;99.90
24420;DHT22;12599;52.426;13.330;2022-08-01T11:47:21;22.10;99.90
24420;DHT22;12599;52.426;13.330;2022-08-01T11:57:05;21.20;99.90
24420;DHT22;12599;52.426;13.330;2022-08-01T11:59:50;21.30;99.90
24420;DHT22;12599;52.426;13.330;2022-08-01T12:07:17;21.80;99.90
24420;DHT22;12599;52.426;13.330;2022-08-01T12:09:43;22.00;99.90
24420;DHT22;12599;52.426;13.330;2022-08-01T12:12:10;22.40;99.90
24420;DHT22;12599;52.426;13.330;2022-08-01T12:14:35;22.60;99.90
24420;DHT22;12599;52.426;13.330;2022-08-01T12:17:01;22.60;99.90
24420;DHT22;12599;52.426;13.330;2022-08-01T12:19:27;22.90;99.90
24420;DHT22;12599;52.426;13.330;2022-08-01T12:22:11;22.90;99.90
24420;DHT22;12599;52.426;13.330;2022-08-01T12:24:39;22.90;99.90
24420;DHT22;12599;52.426;13.330;2022-08-01T12:27:06;23.00;99.90
24420;DHT22;12599;52.426;13.330;2022-08-01T12:29:37;23.10;99.90
24420;DHT22;12599;52.426;13.330;2022-08-01T12:32:04;23.20;99.90
24420;DHT22;12599;52.426;13.330;2022-08-01T12:34:30;23.50;99.90
24420;DHT22;12599;52.426;13.330;2022-08-01T12:37:00;23.50;99.90
24420;DHT22;12599;52.426;13.330;2022-08-01T12:39:34;23.50;99.90
24420;DHT22;12599;52.426;13.330;2022-08-01T12:42:00;23.50;99.90
24420;DHT22;12599;52.426;13.330;2022-08-01T12:44:27;23.60;99.90
24420;DHT22;12599;52.426;13.330;2022-08-01T12:46:53;23.80;99.90
24420;DHT22;12599;52.426;13.330;2022-08-01T12:49:20;24.00;99.90
24420;DHT22;12599;52.426;13.330;2022-08-01T12:51:46;24.10;99.90
24420;DHT22;12599;52.426;13.330;2022-08-01T12:54:11;24.20;99.90
24420;DHT22;12599;52.426;13.330;2022-08-01T12:56:37;24.30;99.90
24420;DHT22;12599;52.426;13.330;2022-08-01T12:59:20;24.40;99.90
24420;DHT22;12599;52.426;13.330;2022-08-01T13:01:45;24.60;99.90
24420;DHT22;12599;52.426;13.330;2022-08-01T13:04:12;24.80;99.90
24420;DHT22;12599;52.426;13.330;2022-08-01T13:06:37;24.70;99.90
24420;DHT22;12599;52.426;13.330;2022-08-01T13:09:07;24.30;99.90
24420;DHT22;12599;52.426;13.330;2022-08-01T13:11:34;24.00;99.90
24420;DHT22;12599;52.426;13.330;2022-08-01T13:14:00;24.00;99.90
24420;DHT22;12599;52.426;13.330;2022-08-01T13:16:26;23.90;99.90
24420;DHT22;12599;52.426;13.330;2022-08-01T13:18:54;24.10;99.90
24420;DHT22;12599;52.426;13.330;2022-08-01T13:21:23;24.20;99.90
24420;DHT22;12599;52.426;13.330;2022-08-01T13:29:21;23.90;99.90
24420;DHT22;12599;52.426;13.330;2022-08-01T13:31:48;23.90;99.90
24420;DHT22;12599;52.426;13.330;2022-08-01T13:34:14;23.80;99.90
24420;DHT22;12599;52.426;13.330;2022-08-01T13:36:40;23.90;99.90
24420;DHT22;12599;52.426;13.330;2022-08-01T13:39:06;24.30;99.90
24420;DHT22;12599;52.426;13.330;2022-08-01T13:41:51;24.30;99.90
24420;DHT22;12599;52.426;13.330;2022-08-01T13:44:17;24.60;99.90
24420;DHT22;12599;52.426;13.330;2022-08-01T13:46:44;24.70;99.90
24420;DHT22;12599;52.426;13.330;2022-08-01T13:49:10;24.70;99.90
24420;DHT22;12599;52.426;13.330;2022-08-01T13:51:37;24.80;99.90
24420;DHT22;12599;52.426;13.330;2022-08-01T13:54:04;24.70;99.90
24420;DHT22;12599;52.426;13.330;2022-08-01T13:56:29;24.90;99.90
24420;DHT22;12599;52.426;13.330;2022-08-01T13:58:56;24.80;99.90
24420;DHT22;12599;52.426;13.330;2022-08-01T14:01:22;24.90;99.90
24420;DHT22;12599;52.426;13.330;2022-08-01T14:03:47;24.70;99.90
24420;DHT22;12599;52.426;13.330;2022-08-01T14:06:13;24.50;99.90
24420;DHT22;12599;52.426;13.330;2022-08-01T14:08:41;24.30;99.90
24420;DHT22;12599;52.426;13.330;2022-08-01T14:11:07;24.50;99.90
24420;DHT22;12599;52.426;13.330;2022-08-01T14:13:32;24.50;99.90
24420;DHT22;12599;52.426;13.330;2022-08-01T14:15:58;24.60;99.90
24420;DHT22;12599;52.426;13.330;2022-08-01T14:18:25;24.60;99.90
24420;DHT22;12599;52.426;13.330;2022-08-01T14:20:51;24.70;99.90
24420;DHT22;12599;52.426;13.330;2022-08-01T14:23:16;25.00;99.90
24420;DHT22;12599;52.426;13.330;2022-08-01T14:25:42;24.90;99.90
24420;DHT22;12599;52.426;13.330;2022-08-01T14:28:08;24.90;99.90
24420;DHT22;12599;52.426;13.330;2022-08-01T14:30:34;24.90;99.90
24420;DHT22;12599;52.426;13.330;2022-08-01T14:33:00;24.80;99.90
24420;DHT22;12599;52.426;13.330;2022-08-01T14:35:26;23.00;99.90
24420;DHT22;12599;52.426;13.330;2022-08-01T14:37:52;24.80;99.90
24420;DHT22;12599;52.426;13.330;2022-08-01T14:40:17;25.00;99.90
24420;DHT22;12599;52.426;13.330;2022-08-01T14:42:43;24.80;99.90
24420;DHT22;12599;52.426;13.330;2022-08-01T14:45:11;25.00;99.90
24420;DHT22;12599;52.426;13.330;2022-08-01T14:47:37;25.00;99.90
24420;DHT22;12599;52.426;13.330;2022-08-01T14:50:08;25.00;99.90
24420;DHT22;12599;52.426;13.330;2022-08-01T14:52:36;24.90;99.90
24420;DHT22;12599;52.426;13.330;2022-08-01T14:55:02;24.80;99.90
24420;DHT22;12599;52.426;13.330;2022-08-01T14:57:28;24.80;99.90
24420;DHT22;12599;52.426;13.330;2022-08-01T14:59:54;25.10;99.90
24420;DHT22;12599;52.426;13.330;2022-08-01T15:02:20;25.30;99.90
24420;DHT22;12599;52.426;13.330;2022-08-01T15:04:47;25.50;99.90
24420;DHT22;12599;52.426;13.330;2022-08-01T15:07:13;25.40;99.90
24420;DHT22;12599;52.426;13.330;2022-08-01T15:09:39;25.30;99.90
24420;DHT22;12599;52.426;13.330;2022-08-01T15:12:05;25.40;99.90
24420;DHT22;12599;52.426;13.330;2022-08-01T15:14:30;25.70;99.90
24420;DHT22;12599;52.426;13.330;2022-08-01T15:17:15;26.00;99.90
24420;DHT22;12599;52.426;13.330;2022-08-01T15:19:40;26.10;99.90
24420;DHT22;12599;52.426;13.330;2022-08-01T15:22:06;25.50;99.90
24420;DHT22;12599;52.426;13.330;2022-08-01T15:24:32;25.00;99.90
24420;DHT22;12599;52.426;13.330;2022-08-01T15:26:58;24.90;99.90
24420;DHT22;12599;52.426;13.330;2022-08-01T15:29:23;24.80;99.90
24420;DHT22;12599;52.426;13.330;2022-08-01T15:31:49;24.50;99.90
24420;DHT22;12599;52.426;13.330;2022-08-01T15:34:15;24.40;99.90
24420;DHT22;12599;52.426;13.330;2022-08-01T15:36:41;24.20;99.90
24420;DHT22;12599;52.426;13.330;2022-08-01T15:39:08;24.20;99.90
24420;DHT22;12599;52.426;13.330;2022-08-01T15:41:34;24.20;99.90
24420;DHT22;12599;52.426;13.330;2022-08-01T15:44:00;24.30;99.90
24420;DHT22;12599;52.426;13.330;2022-08-01T15:46:25;24.40;99.90
24420;DHT22;12599;52.426;13.330;2022-08-01T15:48:51;24.50;99.90
24420;DHT22;12599;52.426;13.330;2022-08-01T15:51:17;24.50;99.90
24420;DHT22;12599;52.426;13.330;2022-08-01T15:53:42;24.50;99.90
24420;DHT22;12599;52.426;13.330;2022-08-01T15:56:09;24.40;99.90
24420;DHT22;12599;52.426;13.330;2022-08-01T15:58:35;24.40;99.90
24420;DHT22;12599;52.426;13.330;2022-08-01T16:01:00;24.60;99.90
24420;DHT22;12599;52.426;13.330;2022-08-01T16:03:26;24.80;99.90
24420;DHT22;12599;52.426;13.330;2022-08-01T16:05:53;25.10;99.90
24420;DHT22;12599;52.426;13.330;2022-08-01T16:08:18;25.40;99.90